Deer Plain, Illinois
Current Conditions -  °F | °C
As of 9:54 AM on Saturday 25 Oct 2014 (Local Time) from KSET Reporting Station
Haze Haze  
Wind Chill: 66°   Ceiling: Unl
Heat Index: 66°   Visibility: 5mi
Dew Point: 60°   Wind: 5mph
Humidity: 81%   Direction: 250°WSW
Pressure: 30.03"   Gusts: NA
Location:  38.9748°N, 90.5955°W
Report Text: KSET 251454Z AUTO 25004KT 5SM HZ CLR 19/16 A3003 RMK AO2 SLP167 T01890156 50001
Loading
Personal Weather Stations






























Interactive Weather Map
Tropical Storm Tracking
New forecast layout! Learn more

10-Day Weather Forecast

Advertisements
Track Severe Weather on mobile